Time;durP1;ratioP1;P1;durP2;ratioP2;P2;SDS_P1;SDS_P2;PMS_P1;PMS_P2;Temp;Humidity;BMP_temperature;BMP_pressure;BME280_temperature;BME280_humidity;BME280_pressure;Samples;Min_cycle;Max_cycle;Signal;HPM_P1;HPM_P2
2023/07/08 00:01:48;;;;;;;5.85;5.25;;;22.50;41.10;;;;;;5052149;28;20464;-70
2023/07/08 00:04:15;;;;;;;5.82;5.00;;;22.50;41.70;;;;;;5050589;28;20417;-70
2023/07/08 00:06:43;;;;;;;5.57;4.85;;;22.40;42.40;;;;;;5057541;28;20431;-70
2023/07/08 00:09:11;;;;;;;5.97;5.20;;;22.30;43.20;;;;;;5062509;28;20626;-69
2023/07/08 00:11:38;;;;;;;6.07;5.47;;;22.20;43.40;;;;;;5069767;28;20963;-70
2023/07/08 00:14:05;;;;;;;5.78;5.18;;;22.20;43.60;;;;;;5069920;28;20410;-69
2023/07/08 00:16:32;;;;;;;6.00;5.40;;;22.20;43.80;;;;;;5069905;28;20786;-69
2023/07/08 00:18:58;;;;;;;6.30;5.70;;;22.20;42.70;;;;;;5068981;28;20427;-70
2023/07/08 00:21:25;;;;;;;5.85;5.25;;;22.20;43.00;;;;;;5059198;28;20429;-69
2023/07/08 00:23:53;;;;;;;5.70;5.20;;;22.20;43.00;;;;;;5068963;28;20532;-70
2023/07/08 00:26:23;;;;;;;6.22;5.63;;;22.20;43.60;;;;;;5069719;28;20412;-70
2023/07/08 00:28:49;;;;;;;5.63;5.03;;;22.20;43.40;;;;;;5061644;28;20427;-69
2023/07/08 00:31:16;;;;;;;7.68;6.97;;;22.20;43.60;;;;;;5061332;28;20415;-69
2023/07/08 00:33:43;;;;;;;6.30;5.68;;;22.10;43.30;;;;;;5069539;28;20407;-69
2023/07/08 00:36:12;;;;;;;6.10;5.50;;;22.10;43.60;;;;;;5060860;28;20427;-69
2023/07/08 00:38:44;;;;;;;6.20;5.20;;;22.10;44.10;;;;;;5060749;28;20907;-69
2023/07/08 00:41:21;;;;;;;6.40;5.40;;;22.10;44.60;;;;;;5069473;28;20441;-69
2023/07/08 00:43:50;;;;;;;6.15;5.32;;;22.00;44.60;;;;;;5067191;28;20502;-70
2023/07/08 00:46:34;;;;;;;6.13;5.53;;;22.00;45.00;;;;;;5056896;28;20436;-69
2023/07/08 00:49:12;;;;;;;5.40;4.90;;;22.00;44.70;;;;;;5049018;28;20413;-69
2023/07/08 00:51:40;;;;;;;6.18;5.28;;;22.00;44.80;;;;;;5056712;28;20439;-69
2023/07/08 00:54:11;;;;;;;7.55;5.70;;;22.00;45.20;;;;;;5062482;28;20434;-69
2023/07/08 00:56:43;;;;;;;6.47;5.88;;;22.00;45.00;;;;;;5069815;28;20415;-69
2023/07/08 00:59:14;;;;;;;5.72;5.13;;;22.00;44.50;;;;;;5063339;28;20749;-69
2023/07/08 01:01:44;;;;;;;6.35;5.75;;;21.90;44.60;;;;;;5058897;28;20425;-69
2023/07/08 01:04:14;;;;;;;6.32;5.65;;;22.00;45.20;;;;;;5057218;28;20513;-70
2023/07/08 01:06:45;;;;;;;5.85;5.10;;;21.90;44.90;;;;;;5054166;28;20439;-68
2023/07/08 01:09:15;;;;;;;5.97;5.37;;;21.90;45.50;;;;;;5056543;28;20920;-70
2023/07/08 01:11:43;;;;;;;5.95;5.35;;;21.90;45.80;;;;;;5053205;28;20424;-69
2023/07/08 01:14:15;;;;;;;6.03;5.53;;;21.90;45.80;;;;;;5052984;28;20416;-68
2023/07/08 01:16:42;;;;;;;5.78;5.20;;;21.90;46.60;;;;;;5054815;28;20517;-69
2023/07/08 01:19:15;;;;;;;6.20;5.60;;;21.80;45.90;;;;;;5057259;28;20429;-69
2023/07/08 01:21:47;;;;;;;6.07;5.47;;;21.80;46.50;;;;;;5046417;28;20786;-69
2023/07/08 01:24:14;;;;;;;6.20;5.20;;;21.80;46.70;;;;;;5058093;28;20413;-69
2023/07/08 01:26:45;;;;;;;6.40;5.70;;;21.80;47.40;;;;;;5052919;28;20417;-69
2023/07/08 01:29:12;;;;;;;6.20;5.60;;;21.80;47.00;;;;;;5052548;28;20416;-69
2023/07/08 01:31:40;;;;;;;5.50;4.90;;;21.70;47.90;;;;;;5053194;28;20424;-69
2023/07/08 01:34:09;;;;;;;6.00;5.40;;;21.70;47.70;;;;;;5056568;28;20439;-69
2023/07/08 01:36:42;;;;;;;6.20;5.60;;;21.70;47.90;;;;;;5060633;28;20925;-70
2023/07/08 01:39:13;;;;;;;7.40;5.60;;;21.70;47.10;;;;;;5063521;28;20510;-70
2023/07/08 01:41:40;;;;;;;7.10;5.57;;;21.60;46.90;;;;;;5070817;28;20414;-69
2023/07/08 01:44:21;;;;;;;7.28;5.32;;;21.60;47.00;;;;;;5060557;28;20424;-70
2023/07/08 01:46:49;;;;;;;6.00;5.40;;;21.60;47.00;;;;;;5071566;28;20419;-69
2023/07/08 01:49:15;;;;;;;5.65;5.10;;;21.60;46.90;;;;;;5068621;28;20911;-70
2023/07/08 01:51:43;;;;;;;5.93;5.38;;;21.60;47.00;;;;;;5057403;28;20438;-69
2023/07/08 01:54:11;;;;;;;6.15;5.25;;;21.50;47.60;;;;;;5063873;28;20427;-69
2023/07/08 01:56:37;;;;;;;6.90;5.50;;;21.50;48.10;;;;;;5072912;28;20407;-69
2023/07/08 01:59:04;;;;;;;6.72;5.30;;;21.50;48.20;;;;;;5072012;28;20427;-70
2023/07/08 02:01:31;;;;;;;6.00;5.50;;;21.50;47.30;;;;;;5072855;28;20412;-70
2023/07/08 02:03:57;;;;;;;6.55;5.20;;;21.50;48.10;;;;;;5071779;28;20494;-69
2023/07/08 02:06:24;;;;;;;5.60;5.00;;;21.50;49.20;;;;;;5067069;28;20423;-69
2023/07/08 02:08:51;;;;;;;7.10;6.00;;;21.40;48.90;;;;;;5062445;28;20498;-69
2023/07/08 02:11:19;;;;;;;5.88;5.28;;;21.40;49.30;;;;;;5072100;28;20415;-69
2023/07/08 02:13:46;;;;;;;6.45;5.30;;;21.40;48.90;;;;;;5071828;28;20418;-69
2023/07/08 02:16:13;;;;;;;6.20;5.60;;;21.40;49.60;;;;;;5071952;28;20419;-69
2023/07/08 02:18:39;;;;;;;6.30;5.70;;;21.30;50.40;;;;;;5071579;28;20427;-70
2023/07/08 02:21:06;;;;;;;5.85;5.25;;;21.30;51.70;;;;;;5064078;28;20451;-69
2023/07/08 02:23:33;;;;;;;6.40;5.50;;;21.30;52.30;;;;;;5059442;28;20503;-68
2023/07/08 02:25:59;;;;;;;6.50;5.90;;;21.20;53.70;;;;;;5071546;28;20407;-68
2023/07/08 02:28:27;;;;;;;6.07;5.20;;;21.20;53.70;;;;;;5071161;28;20420;-69
2023/07/08 02:30:54;;;;;;;5.60;5.00;;;21.20;54.40;;;;;;5071151;28;20411;-68
2023/07/08 02:33:32;;;;;;;6.18;5.40;;;21.20;52.50;;;;;;5071279;28;20747;-70
2023/07/08 02:35:59;;;;;;;6.10;5.50;;;21.20;53.90;;;;;;5064745;28;20520;-69
2023/07/08 02:38:26;;;;;;;6.55;5.60;;;21.10;52.80;;;;;;5062492;28;20418;-69
2023/07/08 02:40:52;;;;;;;5.38;4.88;;;21.10;53.70;;;;;;5074496;28;20427;-69
2023/07/08 02:43:19;;;;;;;6.38;4.90;;;21.00;52.80;;;;;;5077102;28;20411;-69
2023/07/08 02:45:50;;;;;;;5.28;4.63;;;21.00;53.00;;;;;;5078010;28;20419;-70
2023/07/08 02:48:16;;;;;;;5.10;4.60;;;21.00;52.50;;;;;;5073093;28;20952;-69
2023/07/08 02:50:43;;;;;;;5.68;5.07;;;21.00;51.60;;;;;;5067403;28;20426;-69
2023/07/08 02:53:10;;;;;;;5.80;5.20;;;21.00;53.00;;;;;;5063263;28;20422;-70
2023/07/08 02:55:36;;;;;;;5.30;4.80;;;20.90;53.00;;;;;;5070803;28;20913;-68
2023/07/08 02:58:03;;;;;;;5.30;4.68;;;20.90;52.90;;;;;;5071651;28;20834;-69
2023/07/08 03:00:30;;;;;;;4.87;4.20;;;20.90;52.80;;;;;;5082729;28;20427;-69
2023/07/08 03:02:59;;;;;;;5.00;4.38;;;20.80;52.30;;;;;;5072566;28;20411;-69
2023/07/08 03:05:27;;;;;;;4.65;4.15;;;20.80;52.60;;;;;;5067296;28;20436;-69
2023/07/08 03:07:53;;;;;;;4.80;4.30;;;20.80;52.10;;;;;;5065724;28;20425;-69
2023/07/08 03:10:20;;;;;;;4.80;4.40;;;20.80;52.30;;;;;;5050007;28;20413;-70
2023/07/08 03:12:47;;;;;;;4.57;4.18;;;20.80;52.70;;;;;;5050533;28;20420;-68
2023/07/08 03:15:14;;;;;;;5.78;4.50;;;20.80;52.80;;;;;;5050538;28;20784;-68
2023/07/08 03:17:41;;;;;;;4.63;4.15;;;20.80;53.60;;;;;;5050719;28;20831;-69
2023/07/08 03:20:11;;;;;;;4.88;4.38;;;20.80;52.20;;;;;;5049328;28;20425;-69
2023/07/08 03:22:37;;;;;;;4.90;4.40;;;20.80;52.70;;;;;;5060953;28;20424;-69
2023/07/08 03:25:05;;;;;;;5.00;4.40;;;20.80;53.90;;;;;;5072789;28;20613;-69
2023/07/08 03:27:31;;;;;;;5.82;3.90;;;20.80;53.90;;;;;;5077221;28;20420;-71
2023/07/08 03:29:58;;;;;;;4.80;4.40;;;20.80;53.50;;;;;;5072489;28;20478;-69
2023/07/08 03:32:25;;;;;;;5.78;4.65;;;20.80;54.10;;;;;;5073058;28;20411;-69
2023/07/08 03:34:52;;;;;;;5.50;4.25;;;20.80;53.10;;;;;;5067182;28;20432;-69
2023/07/08 03:37:20;;;;;;;4.78;4.38;;;20.80;56.20;;;;;;5062464;28;20412;-68
2023/07/08 03:39:47;;;;;;;6.22;4.90;;;20.80;55.10;;;;;;5068953;28;20434;-69
2023/07/08 03:42:13;;;;;;;5.38;4.88;;;20.80;55.30;;;;;;5069956;28;20408;-68
2023/07/08 03:44:40;;;;;;;4.85;4.35;;;20.80;54.40;;;;;;5069802;28;20423;-70
2023/07/08 03:47:08;;;;;;;5.72;4.15;;;20.80;54.70;;;;;;5070050;28;20423;-69
2023/07/08 03:49:35;;;;;;;4.97;4.43;;;20.80;55.00;;;;;;5061277;28;20533;-70
2023/07/08 03:52:02;;;;;;;4.75;4.25;;;20.80;54.40;;;;;;5058018;28;20892;-70
2023/07/08 03:54:30;;;;;;;5.77;4.50;;;20.80;54.40;;;;;;5065469;28;20423;-69
2023/07/08 03:56:57;;;;;;;4.75;4.18;;;20.80;54.30;;;;;;5072820;28;20403;-69
2023/07/08 03:59:23;;;;;;;4.93;4.53;;;20.80;55.00;;;;;;5077951;28;20518;-68
2023/07/08 04:01:50;;;;;;;5.40;4.30;;;20.70;55.00;;;;;;5069719;28;20416;-68
2023/07/08 04:04:17;;;;;;;4.32;3.92;;;20.70;54.40;;;;;;5060966;28;20437;-69
2023/07/08 04:06:45;;;;;;;4.90;4.20;;;20.70;55.10;;;;;;5057722;28;20448;-70
2023/07/08 04:09:11;;;;;;;4.90;4.20;;;20.70;55.20;;;;;;5048685;28;20440;-70
2023/07/08 04:11:39;;;;;;;4.78;3.97;;;20.70;54.80;;;;;;5049572;28;20413;-69
2023/07/08 04:14:09;;;;;;;4.72;4.32;;;20.60;55.60;;;;;;5049430;28;20412;-69
2023/07/08 04:16:45;;;;;;;5.93;4.30;;;20.60;54.10;;;;;;5050211;28;20516;-70
2023/07/08 04:19:14;;;;;;;5.22;4.30;;;20.50;54.50;;;;;;5054076;28;20441;-70
2023/07/08 04:21:41;;;;;;;5.38;4.30;;;20.50;53.80;;;;;;5060945;28;20814;-69
2023/07/08 04:24:10;;;;;;;5.18;4.55;;;20.50;54.10;;;;;;5068761;28;20854;-70
2023/07/08 04:26:39;;;;;;;4.63;4.20;;;20.50;54.40;;;;;;5069356;28;20412;-69
2023/07/08 04:29:10;;;;;;;4.80;4.15;;;20.50;54.50;;;;;;5068674;28;20419;-68
2023/07/08 04:31:36;;;;;;;4.80;4.18;;;20.50;54.60;;;;;;5069738;28;20430;-69
2023/07/08 04:34:03;;;;;;;4.95;4.00;;;20.50;53.80;;;;;;5064152;28;20423;-70
2023/07/08 04:36:30;;;;;;;4.45;4.00;;;20.50;54.10;;;;;;5052835;28;20433;-70
2023/07/08 04:38:57;;;;;;;4.32;3.90;;;20.50;53.60;;;;;;5048556;28;20414;-69
2023/07/08 04:41:25;;;;;;;4.53;3.92;;;20.50;54.30;;;;;;5049293;28;21034;-69
2023/07/08 04:43:53;;;;;;;5.30;3.97;;;20.50;53.90;;;;;;5048620;28;20482;-69
2023/07/08 04:46:30;;;;;;;4.60;3.80;;;20.50;53.10;;;;;;5049446;28;20799;-70
2023/07/08 04:49:00;;;;;;;4.97;3.78;;;20.50;53.40;;;;;;5044650;28;20469;-70
2023/07/08 04:51:27;;;;;;;4.80;4.30;;;20.50;54.00;;;;;;5052953;28;20417;-69
2023/07/08 04:53:53;;;;;;;4.67;3.97;;;20.50;54.00;;;;;;5048431;28;20500;-69
2023/07/08 04:56:21;;;;;;;5.00;4.00;;;20.50;53.70;;;;;;5049025;28;20416;-69
2023/07/08 04:58:48;;;;;;;4.53;3.70;;;20.50;54.60;;;;;;5048394;28;20421;-69
2023/07/08 05:01:14;;;;;;;4.40;4.00;;;20.50;54.10;;;;;;5048889;28;20425;-69
2023/07/08 05:03:43;;;;;;;4.95;4.03;;;20.50;54.10;;;;;;5046249;28;20433;-69
2023/07/08 05:06:09;;;;;;;4.90;4.03;;;20.50;54.40;;;;;;5054372;28;20890;-69
2023/07/08 05:08:36;;;;;;;5.30;4.30;;;20.50;53.70;;;;;;5059761;28;20415;-69
2023/07/08 05:11:04;;;;;;;4.20;3.70;;;20.50;53.70;;;;;;5068513;28;20916;-69
2023/07/08 05:13:31;;;;;;;4.90;4.30;;;20.60;53.40;;;;;;5068807;28;20480;-70
2023/07/08 05:15:57;;;;;;;5.28;4.20;;;20.60;53.80;;;;;;5068802;28;20415;-70
2023/07/08 05:18:24;;;;;;;5.00;3.90;;;20.60;53.20;;;;;;5064376;28;20431;-68
2023/07/08 05:20:54;;;;;;;5.13;3.70;;;20.60;53.40;;;;;;5059986;28;20843;-69
2023/07/08 05:23:21;;;;;;;4.47;4.00;;;20.60;53.30;;;;;;5068172;28;20847;-69
2023/07/08 05:25:48;;;;;;;5.13;3.90;;;20.60;53.20;;;;;;5069281;28;20492;-69
2023/07/08 05:28:15;;;;;;;4.70;4.20;;;20.70;53.50;;;;;;5068705;28;20407;-70
2023/07/08 05:30:42;;;;;;;5.13;3.70;;;20.70;54.20;;;;;;5068331;28;20412;-69
2023/07/08 05:33:09;;;;;;;4.50;3.80;;;20.70;54.10;;;;;;5066417;28;20442;-69
2023/07/08 05:35:36;;;;;;;4.20;3.60;;;20.70;54.20;;;;;;5058396;28;20433;-68
2023/07/08 05:38:04;;;;;;;4.40;4.00;;;20.70;53.90;;;;;;5068742;28;20442;-69
2023/07/08 05:40:30;;;;;;;5.20;4.00;;;20.80;53.70;;;;;;5067206;28;20427;-68
2023/07/08 05:42:57;;;;;;;4.90;3.85;;;20.80;52.60;;;;;;5064524;28;20813;-70
2023/07/08 05:45:24;;;;;;;5.38;3.75;;;20.90;51.80;;;;;;5052704;28;20499;-69
2023/07/08 05:47:50;;;;;;;3.97;3.50;;;20.90;51.60;;;;;;5047826;28;20420;-69
2023/07/08 05:50:17;;;;;;;4.40;3.70;;;20.90;51.80;;;;;;5056297;28;20867;-69
2023/07/08 05:52:44;;;;;;;4.15;3.75;;;21.00;51.90;;;;;;5067185;28;20419;-70
2023/07/08 05:55:12;;;;;;;4.37;3.97;;;21.00;51.30;;;;;;5069034;28;20491;-69
2023/07/08 05:57:39;;;;;;;4.65;4.15;;;21.00;51.50;;;;;;5056776;28;20427;-70
2023/07/08 06:00:07;;;;;;;5.40;4.40;;;21.10;52.00;;;;;;5063850;28;20758;-69
2023/07/08 06:02:34;;;;;;;4.10;3.50;;;21.10;53.00;;;;;;5051971;28;20413;-70
2023/07/08 06:05:00;;;;;;;4.85;4.35;;;21.10;51.90;;;;;;5057402;28;20758;-69
2023/07/08 06:07:27;;;;;;;4.13;3.73;;;21.10;52.70;;;;;;5063557;28;20416;-69
2023/07/08 06:09:55;;;;;;;3.95;3.55;;;21.20;53.30;;;;;;5071096;28;20415;-69
2023/07/08 06:12:24;;;;;;;5.10;3.70;;;21.20;52.80;;;;;;5069431;28;20411;-70
2023/07/08 06:14:50;;;;;;;4.25;3.85;;;21.20;53.20;;;;;;5060016;28;20826;-70
2023/07/08 06:17:17;;;;;;;4.20;3.80;;;21.20;52.70;;;;;;5052139;28;20891;-70
2023/07/08 06:19:44;;;;;;;4.80;3.90;;;21.20;52.90;;;;;;5058517;28;20866;-69
2023/07/08 06:22:11;;;;;;;4.40;3.53;;;21.30;53.40;;;;;;5064708;28;20428;-69
2023/07/08 06:24:38;;;;;;;4.00;3.60;;;21.40;53.10;;;;;;5070796;28;20412;-70
2023/07/08 06:27:05;;;;;;;3.90;3.60;;;21.40;52.00;;;;;;5069099;28;20513;-70
2023/07/08 06:29:35;;;;;;;4.10;3.70;;;21.50;51.90;;;;;;5058828;28;20429;-70
2023/07/08 06:32:02;;;;;;;5.97;4.10;;;21.60;52.10;;;;;;5071311;28;20407;-69
2023/07/08 06:34:29;;;;;;;4.25;3.70;;;21.70;51.20;;;;;;5068204;28;20909;-70
2023/07/08 06:36:56;;;;;;;4.50;3.72;;;21.80;50.00;;;;;;5055093;28;20426;-71
2023/07/08 06:39:22;;;;;;;5.50;3.90;;;21.90;49.40;;;;;;5070283;28;20913;-70
2023/07/08 06:41:49;;;;;;;5.20;3.88;;;22.00;49.30;;;;;;5071500;28;20423;-69
2023/07/08 06:44:16;;;;;;;4.53;3.72;;;22.10;49.00;;;;;;5062088;28;20814;-70
2023/07/08 06:46:44;;;;;;;3.50;3.20;;;22.20;48.50;;;;;;5059206;28;20413;-69
2023/07/08 06:49:12;;;;;;;3.70;3.30;;;22.30;48.00;;;;;;5063897;28;20962;-69
2023/07/08 06:51:39;;;;;;;4.10;3.67;;;22.40;48.60;;;;;;5060486;28;20417;-69
2023/07/08 06:54:11;;;;;;;5.30;3.80;;;22.50;47.30;;;;;;5070556;28;20419;-69
2023/07/08 06:56:39;;;;;;;4.40;3.80;;;22.60;46.70;;;;;;5071241;28;20905;-69
2023/07/08 06:59:05;;;;;;;4.50;3.70;;;22.70;46.50;;;;;;5090874;28;20473;-70
2023/07/08 07:01:32;;;;;;;4.70;3.88;;;22.70;46.00;;;;;;5078597;28;20428;-70
2023/07/08 07:04:01;;;;;;;4.30;3.90;;;22.80;45.80;;;;;;5072437;28;20442;-69
2023/07/08 07:06:28;;;;;;;4.20;3.80;;;23.00;45.40;;;;;;5059699;28;20922;-70
2023/07/08 07:08:54;;;;;;;4.28;3.88;;;23.00;44.60;;;;;;5071068;28;20415;-71
2023/07/08 07:11:21;;;;;;;4.63;4.00;;;23.20;45.00;;;;;;5071835;28;20407;-70
2023/07/08 07:13:48;;;;;;;4.90;3.80;;;23.30;44.50;;;;;;5071544;28;20415;-69
2023/07/08 07:16:15;;;;;;;4.15;3.75;;;23.50;44.60;;;;;;5071320;28;20530;-69
2023/07/08 07:18:41;;;;;;;4.38;3.75;;;23.70;43.70;;;;;;5061327;28;20859;-70
2023/07/08 07:21:09;;;;;;;5.30;4.38;;;23.80;43.50;;;;;;5061723;28;20445;-69
2023/07/08 07:23:36;;;;;;;4.75;4.25;;;23.90;43.10;;;;;;5070109;28;20415;-70
2023/07/08 07:26:04;;;;;;;4.83;3.70;;;24.10;42.60;;;;;;5056957;28;20432;-69
2023/07/08 07:28:31;;;;;;;4.33;3.93;;;24.10;42.00;;;;;;5066870;28;20876;-71
2023/07/08 07:30:59;;;;;;;4.30;3.90;;;24.20;42.40;;;;;;5063540;28;20455;-70
2023/07/08 07:33:26;;;;;;;4.32;3.92;;;24.30;41.70;;;;;;5057086;28;20433;-69
2023/07/08 07:35:53;;;;;;;4.63;3.97;;;24.40;41.60;;;;;;5061786;28;20940;-70
2023/07/08 07:38:21;;;;;;;5.20;4.37;;;24.40;40.60;;;;;;5069776;28;20451;-70
2023/07/08 07:40:48;;;;;;;4.30;3.90;;;24.50;40.80;;;;;;5069794;28;20479;-69
2023/07/08 07:43:15;;;;;;;4.70;3.90;;;24.50;40.90;;;;;;5070076;28;20411;-70
2023/07/08 07:45:41;;;;;;;6.15;4.15;;;24.50;40.70;;;;;;5064880;28;20783;-70
2023/07/08 07:48:08;;;;;;;5.80;4.27;;;24.50;40.90;;;;;;5064175;28;20424;-70
2023/07/08 07:50:35;;;;;;;6.43;4.10;;;24.60;40.20;;;;;;5057880;28;20439;-69
2023/07/08 07:53:01;;;;;;;4.63;4.22;;;24.70;40.00;;;;;;5069645;28;20412;-70
2023/07/08 07:55:29;;;;;;;4.45;4.03;;;24.90;39.10;;;;;;5070032;28;20407;-70
2023/07/08 07:57:56;;;;;;;5.47;4.45;;;25.10;38.90;;;;;;5069993;28;20419;-70
2023/07/08 08:00:23;;;;;;;4.35;3.95;;;25.20;38.90;;;;;;5069872;28;20411;-69
2023/07/08 08:02:50;;;;;;;5.18;4.68;;;25.30;38.40;;;;;;5082479;28;20407;-70
2023/07/08 08:05:16;;;;;;;5.17;4.67;;;25.40;39.00;;;;;;5064374;28;20430;-69
2023/07/08 08:07:45;;;;;;;6.43;4.50;;;25.40;38.60;;;;;;5061599;28;20422;-68
2023/07/08 08:10:11;;;;;;;4.70;4.20;;;25.60;38.60;;;;;;5068750;28;20412;-69
2023/07/08 08:12:39;;;;;;;5.50;4.50;;;25.60;38.50;;;;;;5069648;28;20412;-69
2023/07/08 08:15:07;;;;;;;4.63;4.13;;;25.80;38.30;;;;;;5069441;28;20425;-69
2023/07/08 08:17:34;;;;;;;4.40;4.00;;;25.90;37.90;;;;;;5058255;28;20857;-69
2023/07/08 08:20:01;;;;;;;4.50;4.10;;;26.10;38.30;;;;;;5049290;28;20416;-70
2023/07/08 08:22:27;;;;;;;4.50;4.10;;;26.30;37.70;;;;;;5065691;28;20433;-69
2023/07/08 08:24:55;;;;;;;4.50;4.10;;;26.60;37.20;;;;;;5068902;28;20414;-70
2023/07/08 08:27:21;;;;;;;4.60;4.20;;;26.90;36.20;;;;;;5069369;28;20415;-69
2023/07/08 08:29:49;;;;;;;5.53;4.55;;;27.00;36.00;;;;;;5068647;28;20411;-69
2023/07/08 08:32:16;;;;;;;5.50;4.50;;;27.20;36.20;;;;;;5060813;28;20454;-70
2023/07/08 08:34:44;;;;;;;4.63;4.00;;;27.40;35.40;;;;;;5060193;28;20422;-69
2023/07/08 08:37:11;;;;;;;4.50;4.10;;;27.50;34.90;;;;;;5069195;28;20806;-69
2023/07/08 08:39:38;;;;;;;4.40;4.00;;;27.70;34.80;;;;;;5068282;28;20411;-69
2023/07/08 08:42:08;;;;;;;4.20;3.85;;;27.90;34.70;;;;;;5069060;28;20424;-69
2023/07/08 08:44:36;;;;;;;4.20;3.80;;;28.10;34.50;;;;;;5061903;28;20947;-69
2023/07/08 08:47:14;;;;;;;4.50;4.10;;;28.30;33.80;;;;;;5056387;28;20455;-69
2023/07/08 08:49:46;;;;;;;4.32;3.92;;;28.40;32.60;;;;;;5066436;28;20434;-70
2023/07/08 08:52:14;;;;;;;4.30;3.88;;;28.60;32.80;;;;;;5069446;28;20411;-70
2023/07/08 08:54:43;;;;;;;4.35;3.90;;;28.70;32.60;;;;;;5068504;28;20415;-70
2023/07/08 08:57:30;;;;;;;4.80;4.40;;;28.80;32.70;;;;;;5060029;28;20435;-69
2023/07/08 08:59:58;;;;;;;4.38;3.97;;;28.90;32.10;;;;;;5051181;28;20424;-70
2023/07/08 09:02:34;;;;;;;4.30;3.90;;;29.00;32.10;;;;;;5057421;28;20464;-70
2023/07/08 09:05:05;;;;;;;4.95;3.97;;;29.10;32.00;;;;;;5056242;28;20439;-69
2023/07/08 09:07:39;;;;;;;4.20;3.80;;;29.10;32.10;;;;;;5065666;28;20525;-69
2023/07/08 09:10:14;;;;;;;4.22;3.83;;;29.10;31.10;;;;;;5068241;28;20424;-70
2023/07/08 09:12:41;;;;;;;5.65;3.70;;;29.20;31.40;;;;;;5069365;28;20423;-69
2023/07/08 09:15:14;;;;;;;4.30;3.90;;;29.40;31.50;;;;;;5062660;28;20442;-68
2023/07/08 09:17:42;;;;;;;5.93;3.70;;;29.50;30.90;;;;;;5060252;28;20415;-69
2023/07/08 09:20:21;;;;;;;4.00;3.60;;;29.70;30.90;;;;;;5068630;28;20403;-70
2023/07/08 09:22:56;;;;;;;3.63;3.25;;;29.90;29.90;;;;;;5069029;28;20423;-70
2023/07/08 09:25:28;;;;;;;4.07;3.65;;;29.80;29.60;;;;;;5068588;28;20416;-70
2023/07/08 09:27:55;;;;;;;4.90;3.53;;;29.80;30.10;;;;;;5068908;28;20415;-69
2023/07/08 09:30:26;;;;;;;3.67;3.35;;;30.00;30.20;;;;;;5060252;28;20531;-69
2023/07/08 09:32:54;;;;;;;4.05;3.38;;;30.20;29.70;;;;;;5063718;28;20426;-70
2023/07/08 09:35:23;;;;;;;4.05;3.65;;;30.30;29.60;;;;;;5072239;28;20418;-69
2023/07/08 09:37:50;;;;;;;4.95;3.28;;;30.40;29.60;;;;;;5072562;28;20427;-70
2023/07/08 09:40:20;;;;;;;3.90;3.50;;;30.40;29.30;;;;;;5068681;28;20446;-69
2023/07/08 09:42:51;;;;;;;3.70;3.40;;;30.50;29.40;;;;;;5054928;28;20425;-70
2023/07/08 09:45:20;;;;;;;4.03;3.63;;;30.70;29.20;;;;;;5057530;28;20431;-70
2023/07/08 09:47:47;;;;;;;3.65;3.35;;;30.80;29.20;;;;;;5063856;28;20422;-69
2023/07/08 09:50:21;;;;;;;3.60;3.30;;;31.00;29.30;;;;;;5043592;28;20438;-69
2023/07/08 09:52:48;;;;;;;3.90;3.50;;;31.10;29.20;;;;;;5070192;28;20419;-70
2023/07/08 09:55:16;;;;;;;4.20;3.40;;;31.30;28.90;;;;;;5057178;28;21125;-69
2023/07/08 09:57:45;;;;;;;3.60;3.30;;;31.50;28.70;;;;;;5057635;28;20421;-69
2023/07/08 10:00:15;;;;;;;3.67;3.00;;;31.70;28.80;;;;;;5058599;28;20485;-69
2023/07/08 10:02:46;;;;;;;4.10;3.70;;;31.80;28.70;;;;;;5058776;28;20483;-69
2023/07/08 10:05:21;;;;;;;4.00;3.60;;;32.00;28.30;;;;;;5057273;28;20766;-70
2023/07/08 10:07:49;;;;;;;4.57;3.35;;;32.20;28.40;;;;;;5061464;28;20429;-70
2023/07/08 10:10:19;;;;;;;3.80;3.40;;;32.30;28.00;;;;;;5062032;28;20415;-69
2023/07/08 10:12:56;;;;;;;3.47;3.17;;;32.40;28.00;;;;;;5071839;28;20411;-68
2023/07/08 10:15:28;;;;;;;3.43;3.10;;;32.50;27.90;;;;;;5064516;28;20472;-70
2023/07/08 10:17:55;;;;;;;3.60;3.30;;;32.60;27.50;;;;;;5055144;28;20415;-70
2023/07/08 10:20:37;;;;;;;3.85;3.45;;;32.70;27.50;;;;;;5071070;28;20438;-68
2023/07/08 10:23:16;;;;;;;3.90;3.20;;;32.80;27.70;;;;;;5060110;28;20820;-69
2023/07/08 10:25:56;;;;;;;3.70;3.30;;;32.90;26.90;;;;;;5055902;28;20438;-69
2023/07/08 10:28:33;;;;;;;3.10;2.80;;;33.00;26.60;;;;;;5059681;28;20903;-70
2023/07/08 10:31:11;;;;;;;4.18;3.45;;;33.10;26.70;;;;;;5061452;28;20813;-70
2023/07/08 10:33:58;;;;;;;3.55;3.00;;;33.20;26.70;;;;;;5062585;28;20447;-69
2023/07/08 10:36:43;;;;;;;3.50;3.20;;;33.40;26.40;;;;;;5068937;28;20464;-69
2023/07/08 10:39:30;;;;;;;4.07;3.20;;;33.50;26.30;;;;;;5059256;28;20459;-70
2023/07/08 10:42:07;;;;;;;3.38;3.00;;;33.60;26.10;;;;;;5058598;28;20423;-68
2023/07/08 10:44:40;;;;;;;3.92;2.80;;;33.70;26.10;;;;;;5053839;28;20437;-69
2023/07/08 10:47:16;;;;;;;3.70;3.05;;;33.70;25.90;;;;;;5054018;28;20465;-69
2023/07/08 10:49:58;;;;;;;3.80;3.40;;;33.70;26.50;;;;;;5051603;28;20438;-69
2023/07/08 10:52:39;;;;;;;3.50;2.80;;;33.90;25.80;;;;;;5054867;28;20516;-69
2023/07/08 10:55:22;;;;;;;3.40;3.10;;;34.10;25.60;;;;;;5052276;28;20942;-69
2023/07/08 10:58:06;;;;;;;3.60;3.20;;;34.10;25.10;;;;;;5070146;28;20445;-69
2023/07/08 11:00:41;;;;;;;3.40;2.80;;;34.30;25.40;;;;;;5064139;28;20436;-69
2023/07/08 11:03:44;;;;;;;3.72;2.97;;;34.50;25.10;;;;;;5064379;28;20435;-69
2023/07/08 11:06:15;;;;;;;3.60;2.90;;;34.70;24.90;;;;;;5087589;22;20441;-70
2023/07/08 11:08:46;;;;;;;3.55;3.10;;;34.80;25.00;;;;;;5081688;28;20521;-71
2023/07/08 11:11:33;;;;;;;3.72;3.05;;;35.00;24.70;;;;;;5089956;28;20437;-70
2023/07/08 11:14:05;;;;;;;3.30;3.00;;;35.10;24.90;;;;;;5090308;28;20413;-70
2023/07/08 11:16:35;;;;;;;3.72;3.17;;;35.10;24.90;;;;;;5077438;28;20518;-70
2023/07/08 11:19:08;;;;;;;3.40;3.10;;;35.30;24.60;;;;;;5080649;28;20508;-71
2023/07/08 11:21:40;;;;;;;3.67;3.38;;;35.30;24.40;;;;;;5073165;28;20443;-70
2023/07/08 11:24:20;;;;;;;3.40;3.10;;;35.40;24.70;;;;;;5069410;28;20400;-71
2023/07/08 11:26:51;;;;;;;4.70;3.20;;;35.50;24.00;;;;;;5070119;28;20415;-71
2023/07/08 11:29:22;;;;;;;4.35;2.90;;;35.50;24.00;;;;;;5068302;28;20432;-70
2023/07/08 11:31:50;;;;;;;3.67;3.20;;;35.50;23.80;;;;;;5078076;28;20418;-69
2023/07/08 11:34:18;;;;;;;3.28;2.97;;;35.60;23.90;;;;;;5069658;28;20411;-69
2023/07/08 11:36:47;;;;;;;3.60;3.30;;;35.80;23.80;;;;;;5070140;28;20411;-70
2023/07/08 11:39:34;;;;;;;4.20;3.33;;;35.90;23.70;;;;;;5068456;28;20427;-70
2023/07/08 11:42:12;;;;;;;3.65;3.00;;;35.70;23.70;;;;;;5069823;28;20407;-70
2023/07/08 11:44:43;;;;;;;3.60;3.17;;;35.60;23.80;;;;;;5069276;28;20461;-69
2023/07/08 11:47:17;;;;;;;4.18;3.35;;;35.90;23.80;;;;;;5076093;28;20420;-69
2023/07/08 11:49:45;;;;;;;3.35;3.05;;;35.90;23.50;;;;;;5069395;28;20514;-70
2023/07/08 11:52:17;;;;;;;5.13;3.10;;;36.00;23.80;;;;;;5069550;28;20418;-70
2023/07/08 11:54:47;;;;;;;3.75;3.42;;;36.00;23.90;;;;;;5068688;28;20415;-70
2023/07/08 11:57:19;;;;;;;3.38;3.08;;;36.20;23.50;;;;;;5069671;28;20419;-70
2023/07/08 11:59:47;;;;;;;3.20;2.90;;;36.30;23.10;;;;;;5067898;28;20936;-70
2023/07/08 12:02:16;;;;;;;3.40;3.10;;;36.30;23.20;;;;;;5077608;28;20960;-70
2023/07/08 12:05:00;;;;;;;3.40;3.10;;;36.40;23.30;;;;;;5069095;28;20419;-70
2023/07/08 12:07:32;;;;;;;3.90;3.30;;;36.40;22.80;;;;;;5069576;28;20426;-70
2023/07/08 12:10:05;;;;;;;3.30;2.90;;;36.50;23.30;;;;;;5067908;28;20411;-70
2023/07/08 12:12:41;;;;;;;3.55;3.25;;;36.70;22.90;;;;;;5076386;28;20426;-70
2023/07/08 12:15:13;;;;;;;3.70;2.90;;;36.80;23.00;;;;;;5063423;28;20435;-70
2023/07/08 12:17:40;;;;;;;3.20;2.90;;;37.10;22.70;;;;;;5078123;28;20428;-70
2023/07/08 12:20:19;;;;;;;3.20;2.80;;;37.50;22.30;;;;;;5076287;28;20418;-70
2023/07/08 12:22:46;;;;;;;3.00;2.70;;;37.60;22.30;;;;;;5068352;28;20893;-71
2023/07/08 12:25:16;;;;;;;3.25;2.95;;;37.80;22.80;;;;;;5072140;28;20439;-70
2023/07/08 12:27:43;;;;;;;3.38;3.10;;;37.80;22.20;;;;;;5077506;28;20465;-71
2023/07/08 12:30:12;;;;;;;3.33;3.03;;;38.00;22.30;;;;;;5072399;28;20430;-72
2023/07/08 12:32:39;;;;;;;3.00;2.80;;;38.10;22.30;;;;;;5071609;28;20473;-72
2023/07/08 12:35:17;;;;;;;3.10;2.90;;;38.10;21.90;;;;;;5068761;28;20784;-72
2023/07/08 12:37:44;;;;;;;3.00;2.70;;;38.40;22.20;;;;;;5069293;28;20905;-72
2023/07/08 12:40:11;;;;;;;2.70;2.50;;;38.50;21.70;;;;;;5075159;28;20431;-72
2023/07/08 12:42:39;;;;;;;2.50;2.40;;;38.80;21.80;;;;;;5087311;28;20426;-72
2023/07/08 12:45:14;;;;;;;2.78;2.58;;;39.30;22.30;;;;;;5070067;28;20423;-72
2023/07/08 12:47:41;;;;;;;3.00;2.70;;;39.60;21.30;;;;;;5077572;28;20420;-72
2023/07/08 12:50:10;;;;;;;2.60;2.40;;;39.90;21.20;;;;;;5068624;28;20430;-72
2023/07/08 12:52:36;;;;;;;3.45;2.80;;;39.90;21.40;;;;;;5068958;28;20415;-71
2023/07/08 12:55:04;;;;;;;2.70;2.50;;;39.80;20.80;;;;;;5067614;28;20407;-72
2023/07/08 12:57:33;;;;;;;2.70;2.50;;;39.60;21.20;;;;;;5076599;28;20412;-72
2023/07/08 13:00:02;;;;;;;2.63;2.53;;;39.80;21.60;;;;;;5077680;28;20912;-72